KCRS/CRS METAR and TAF weather

Enter ICAO airport designator
Station Type Date Time Source
KCRS METAR 2019/08/21 08:53 UTC NOAA

KCRS 210853Z AUTO 18007KT 10SM CLR 26/22 A3000 RMK AO2 SLP152 T02560222 56014


Station Type Date Time Source
KCRS Decoded METAR 2019/08/21 08:53 UTC NOAA

Station name not available
Aug 21, 2019 - 04:53 AM EDT / 2019.08.21 0853 UTC
Wind: from the S (180 degrees) at 8 MPH (7 KT):0
Visibility: 10 mile(s):0
Sky conditions: clear
Temperature: 78.1 F (25.6 C)
Dew Point: 72.0 F (22.2 C)
Relative Humidity: 81%
Pressure (altimeter): 30 in. Hg (1015 hPa)
Pressure tendency: 0.04 inches (1.4 hPa) lower than three hours ago
ob: KCRS 210853Z AUTO 18007KT 10SM CLR 26/22 A3000 RMK AO2 SLP152 T02560222 56014
cycle: 9

Station Type Date Time Source
KCRS TAF UTC NOAA

Error!

Example: see airport list